CPX219 Details

Departure: March Air Reserve Base (KRIV) at 0600 UTC
Arrival: Chicago/Rockford International Airport (KRFD) at 0920 UTC
Route: TRM J236 TBC J128 HBU J146 IOW RFD


Current Weather Information
KRIV 200958Z AUTO 15005KT 10SM SCT090 SCT110 SCT190 10/10 A3001 RMK AO2 SLP156 T00990099
KRFD 200954Z 21003KT 10SM SCT055 BKN075 OVC095 05/01 A3012 RMK AO2 SLP204 T00500006